sensor_id;sensor_type;location;lat;lon;timestamp;temperature;humidity
25991;DHT22;13779;-33.886;151.198;2023-11-21T00:02:29;21.20;99.90
25991;DHT22;13779;-33.886;151.198;2023-11-21T00:04:59;21.20;99.90
25991;DHT22;13779;-33.886;151.198;2023-11-21T00:07:29;21.30;99.90
25991;DHT22;13779;-33.886;151.198;2023-11-21T00:10:00;21.40;99.90
25991;DHT22;13779;-33.886;151.198;2023-11-21T00:12:33;21.40;99.90
25991;DHT22;13779;-33.886;151.198;2023-11-21T00:15:04;21.50;99.90
25991;DHT22;13779;-33.886;151.198;2023-11-21T00:17:41;21.60;99.90
25991;DHT22;13779;-33.886;151.198;2023-11-21T00:20:11;21.60;99.90
25991;DHT22;13779;-33.886;151.198;2023-11-21T00:22:42;21.60;99.90
25991;DHT22;13779;-33.886;151.198;2023-11-21T00:25:12;21.60;99.90
25991;DHT22;13779;-33.886;151.198;2023-11-21T00:27:44;21.50;99.90
25991;DHT22;13779;-33.886;151.198;2023-11-21T00:30:14;21.50;99.90
25991;DHT22;13779;-33.886;151.198;2023-11-21T00:32:45;21.40;99.90
25991;DHT22;13779;-33.886;151.198;2023-11-21T00:35:15;21.40;99.90
25991;DHT22;13779;-33.886;151.198;2023-11-21T00:37:45;21.40;99.90
25991;DHT22;13779;-33.886;151.198;2023-11-21T00:40:16;21.40;99.90
25991;DHT22;13779;-33.886;151.198;2023-11-21T00:42:49;21.40;99.90
25991;DHT22;13779;-33.886;151.198;2023-11-21T00:45:19;21.40;99.90
25991;DHT22;13779;-33.886;151.198;2023-11-21T00:47:49;21.40;99.90
25991;DHT22;13779;-33.886;151.198;2023-11-21T00:50:19;21.30;99.90
25991;DHT22;13779;-33.886;151.198;2023-11-21T00:52:50;21.30;99.90
25991;DHT22;13779;-33.886;151.198;2023-11-21T00:55:20;21.30;99.90
25991;DHT22;13779;-33.886;151.198;2023-11-21T00:57:51;21.40;99.90
25991;DHT22;13779;-33.886;151.198;2023-11-21T01:00:21;21.50;99.90
25991;DHT22;13779;-33.886;151.198;2023-11-21T01:02:53;21.60;99.90
25991;DHT22;13779;-33.886;151.198;2023-11-21T01:05:23;21.70;99.90
25991;DHT22;13779;-33.886;151.198;2023-11-21T01:07:54;21.70;99.90
25991;DHT22;13779;-33.886;151.198;2023-11-21T01:10:27;21.60;99.90
25991;DHT22;13779;-33.886;151.198;2023-11-21T01:12:58;21.60;99.90
25991;DHT22;13779;-33.886;151.198;2023-11-21T01:15:28;21.60;99.90
25991;DHT22;13779;-33.886;151.198;2023-11-21T01:17:59;21.60;99.90
25991;DHT22;13779;-33.886;151.198;2023-11-21T01:20:30;21.60;99.90
25991;DHT22;13779;-33.886;151.198;2023-11-21T01:23:00;21.70;99.90
25991;DHT22;13779;-33.886;151.198;2023-11-21T01:25:31;21.70;99.90
25991;DHT22;13779;-33.886;151.198;2023-11-21T01:28:01;21.70;99.90
25991;DHT22;13779;-33.886;151.198;2023-11-21T01:30:32;21.70;99.90
25991;DHT22;13779;-33.886;151.198;2023-11-21T01:33:03;21.70;99.90
25991;DHT22;13779;-33.886;151.198;2023-11-21T01:35:33;21.70;99.90
25991;DHT22;13779;-33.886;151.198;2023-11-21T01:38:04;21.60;99.90
25991;DHT22;13779;-33.886;151.198;2023-11-21T01:40:37;21.60;99.90
25991;DHT22;13779;-33.886;151.198;2023-11-21T01:43:08;21.70;99.90
25991;DHT22;13779;-33.886;151.198;2023-11-21T01:45:38;21.70;99.90
25991;DHT22;13779;-33.886;151.198;2023-11-21T01:48:09;21.80;99.90
25991;DHT22;13779;-33.886;151.198;2023-11-21T01:50:40;21.80;99.90
25991;DHT22;13779;-33.886;151.198;2023-11-21T01:53:11;21.90;99.90
25991;DHT22;13779;-33.886;151.198;2023-11-21T01:55:43;22.00;99.90
25991;DHT22;13779;-33.886;151.198;2023-11-21T01:58:15;22.00;99.90
25991;DHT22;13779;-33.886;151.198;2023-11-21T02:00:47;22.00;99.90
25991;DHT22;13779;-33.886;151.198;2023-11-21T02:03:20;21.90;99.90
25991;DHT22;13779;-33.886;151.198;2023-11-21T02:05:51;21.90;99.90
25991;DHT22;13779;-33.886;151.198;2023-11-21T02:08:23;21.80;99.90
25991;DHT22;13779;-33.886;151.198;2023-11-21T02:10:53;21.80;99.90
25991;DHT22;13779;-33.886;151.198;2023-11-21T02:13:24;21.80;99.90
25991;DHT22;13779;-33.886;151.198;2023-11-21T02:15:54;21.90;99.90
25991;DHT22;13779;-33.886;151.198;2023-11-21T02:18:25;22.00;99.90
25991;DHT22;13779;-33.886;151.198;2023-11-21T02:20:57;22.00;99.90
25991;DHT22;13779;-33.886;151.198;2023-11-21T02:23:28;22.10;99.90
25991;DHT22;13779;-33.886;151.198;2023-11-21T02:25:58;22.20;99.90
25991;DHT22;13779;-33.886;151.198;2023-11-21T02:28:34;22.30;99.90
25991;DHT22;13779;-33.886;151.198;2023-11-21T02:31:05;22.30;99.90
25991;DHT22;13779;-33.886;151.198;2023-11-21T02:33:37;22.30;99.90
25991;DHT22;13779;-33.886;151.198;2023-11-21T02:36:08;22.30;99.90
25991;DHT22;13779;-33.886;151.198;2023-11-21T02:38:39;22.30;99.90
25991;DHT22;13779;-33.886;151.198;2023-11-21T02:41:09;22.40;99.90
25991;DHT22;13779;-33.886;151.198;2023-11-21T02:43:40;22.50;99.90
25991;DHT22;13779;-33.886;151.198;2023-11-21T02:46:11;22.40;99.90
25991;DHT22;13779;-33.886;151.198;2023-11-21T02:48:41;22.40;99.90
25991;DHT22;13779;-33.886;151.198;2023-11-21T02:51:14;22.30;99.90
25991;DHT22;13779;-33.886;151.198;2023-11-21T02:53:45;22.20;99.90
25991;DHT22;13779;-33.886;151.198;2023-11-21T02:56:16;22.30;99.90
25991;DHT22;13779;-33.886;151.198;2023-11-21T02:58:47;22.20;99.90
25991;DHT22;13779;-33.886;151.198;2023-11-21T03:01:17;22.40;99.90
25991;DHT22;13779;-33.886;151.198;2023-11-21T03:03:48;22.50;99.90
25991;DHT22;13779;-33.886;151.198;2023-11-21T03:06:21;22.50;99.90
25991;DHT22;13779;-33.886;151.198;2023-11-21T03:08:51;22.40;99.90
25991;DHT22;13779;-33.886;151.198;2023-11-21T03:11:22;22.40;99.90
25991;DHT22;13779;-33.886;151.198;2023-11-21T03:13:52;22.40;99.90
25991;DHT22;13779;-33.886;151.198;2023-11-21T03:16:23;22.50;99.90
25991;DHT22;13779;-33.886;151.198;2023-11-21T03:18:53;22.50;99.90
25991;DHT22;13779;-33.886;151.198;2023-11-21T03:21:24;22.50;99.90
25991;DHT22;13779;-33.886;151.198;2023-11-21T03:23:56;22.70;99.90
25991;DHT22;13779;-33.886;151.198;2023-11-21T03:26:26;22.80;99.90
25991;DHT22;13779;-33.886;151.198;2023-11-21T03:28:56;22.90;99.90
25991;DHT22;13779;-33.886;151.198;2023-11-21T03:31:27;22.90;99.90
25991;DHT22;13779;-33.886;151.198;2023-11-21T03:33:57;22.90;99.90
25991;DHT22;13779;-33.886;151.198;2023-11-21T03:36:28;22.90;99.90
25991;DHT22;13779;-33.886;151.198;2023-11-21T03:38:58;22.80;99.90
25991;DHT22;13779;-33.886;151.198;2023-11-21T03:41:29;22.70;99.90
25991;DHT22;13779;-33.886;151.198;2023-11-21T03:43:59;22.70;99.90
25991;DHT22;13779;-33.886;151.198;2023-11-21T03:46:30;22.70;99.90
25991;DHT22;13779;-33.886;151.198;2023-11-21T03:49:01;22.70;99.90
25991;DHT22;13779;-33.886;151.198;2023-11-21T03:51:32;22.60;99.90
25991;DHT22;13779;-33.886;151.198;2023-11-21T03:54:02;22.60;99.90
25991;DHT22;13779;-33.886;151.198;2023-11-21T03:56:33;22.80;99.90
25991;DHT22;13779;-33.886;151.198;2023-11-21T03:59:03;22.80;99.90
25991;DHT22;13779;-33.886;151.198;2023-11-21T04:01:34;22.90;99.90
25991;DHT22;13779;-33.886;151.198;2023-11-21T04:04:04;22.80;99.90
25991;DHT22;13779;-33.886;151.198;2023-11-21T04:06:35;22.80;99.90
25991;DHT22;13779;-33.886;151.198;2023-11-21T04:09:07;22.90;99.90
25991;DHT22;13779;-33.886;151.198;2023-11-21T04:11:37;22.80;99.90
25991;DHT22;13779;-33.886;151.198;2023-11-21T04:14:08;22.80;99.90
25991;DHT22;13779;-33.886;151.198;2023-11-21T04:16:40;22.90;99.90
25991;DHT22;13779;-33.886;151.198;2023-11-21T04:19:10;23.00;99.90
25991;DHT22;13779;-33.886;151.198;2023-11-21T04:21:44;23.10;99.90
25991;DHT22;13779;-33.886;151.198;2023-11-21T04:24:16;23.20;99.90
25991;DHT22;13779;-33.886;151.198;2023-11-21T04:26:46;23.30;99.90
25991;DHT22;13779;-33.886;151.198;2023-11-21T04:29:17;23.30;99.90
25991;DHT22;13779;-33.886;151.198;2023-11-21T04:31:47;23.20;99.90
25991;DHT22;13779;-33.886;151.198;2023-11-21T04:34:18;23.30;99.90
25991;DHT22;13779;-33.886;151.198;2023-11-21T04:36:50;23.20;99.90
25991;DHT22;13779;-33.886;151.198;2023-11-21T04:39:21;23.10;99.90
25991;DHT22;13779;-33.886;151.198;2023-11-21T04:41:52;23.10;99.90
25991;DHT22;13779;-33.886;151.198;2023-11-21T04:44:22;23.10;99.90
25991;DHT22;13779;-33.886;151.198;2023-11-21T04:46:53;23.00;99.90
25991;DHT22;13779;-33.886;151.198;2023-11-21T04:49:23;23.00;99.90
25991;DHT22;13779;-33.886;151.198;2023-11-21T04:51:54;23.00;99.90
25991;DHT22;13779;-33.886;151.198;2023-11-21T04:54:31;23.00;99.90
25991;DHT22;13779;-33.886;151.198;2023-11-21T04:57:02;23.10;99.90
25991;DHT22;13779;-33.886;151.198;2023-11-21T04:59:34;23.10;99.90
25991;DHT22;13779;-33.886;151.198;2023-11-21T05:02:05;23.10;99.90
25991;DHT22;13779;-33.886;151.198;2023-11-21T05:04:40;22.90;99.90
25991;DHT22;13779;-33.886;151.198;2023-11-21T05:07:12;22.80;99.90
25991;DHT22;13779;-33.886;151.198;2023-11-21T05:09:43;22.80;99.90
25991;DHT22;13779;-33.886;151.198;2023-11-21T05:12:15;22.90;99.90
25991;DHT22;13779;-33.886;151.198;2023-11-21T05:14:46;23.00;99.90
25991;DHT22;13779;-33.886;151.198;2023-11-21T05:17:16;23.00;99.90
25991;DHT22;13779;-33.886;151.198;2023-11-21T05:19:47;23.00;99.90
25991;DHT22;13779;-33.886;151.198;2023-11-21T05:22:18;23.10;99.90
25991;DHT22;13779;-33.886;151.198;2023-11-21T05:24:49;23.10;99.90
25991;DHT22;13779;-33.886;151.198;2023-11-21T05:27:20;23.10;99.90
25991;DHT22;13779;-33.886;151.198;2023-11-21T05:29:50;23.10;99.90
25991;DHT22;13779;-33.886;151.198;2023-11-21T05:32:21;23.10;99.90
25991;DHT22;13779;-33.886;151.198;2023-11-21T05:34:52;23.20;99.90
25991;DHT22;13779;-33.886;151.198;2023-11-21T05:37:23;23.20;99.90
25991;DHT22;13779;-33.886;151.198;2023-11-21T05:39:54;23.10;99.90
25991;DHT22;13779;-33.886;151.198;2023-11-21T05:42:26;23.10;99.90
25991;DHT22;13779;-33.886;151.198;2023-11-21T05:44:57;23.00;99.90
25991;DHT22;13779;-33.886;151.198;2023-11-21T05:47:43;23.00;99.90
25991;DHT22;13779;-33.886;151.198;2023-11-21T05:50:18;22.90;99.90
25991;DHT22;13779;-33.886;151.198;2023-11-21T05:52:49;22.80;99.90
25991;DHT22;13779;-33.886;151.198;2023-11-21T05:55:22;22.70;99.90
25991;DHT22;13779;-33.886;151.198;2023-11-21T05:57:55;22.60;99.90
25991;DHT22;13779;-33.886;151.198;2023-11-21T06:00:26;22.50;99.90
25991;DHT22;13779;-33.886;151.198;2023-11-21T06:02:57;22.40;99.90
25991;DHT22;13779;-33.886;151.198;2023-11-21T06:05:28;22.30;99.90
25991;DHT22;13779;-33.886;151.198;2023-11-21T06:07:58;22.20;99.90
25991;DHT22;13779;-33.886;151.198;2023-11-21T06:10:30;22.30;99.90
25991;DHT22;13779;-33.886;151.198;2023-11-21T06:13:01;22.30;99.90
25991;DHT22;13779;-33.886;151.198;2023-11-21T06:15:33;22.20;99.90
25991;DHT22;13779;-33.886;151.198;2023-11-21T06:18:04;22.20;99.90
25991;DHT22;13779;-33.886;151.198;2023-11-21T06:20:41;22.10;99.90
25991;DHT22;13779;-33.886;151.198;2023-11-21T06:23:12;22.20;99.90
25991;DHT22;13779;-33.886;151.198;2023-11-21T06:25:43;22.10;99.90
25991;DHT22;13779;-33.886;151.198;2023-11-21T06:28:14;22.10;99.90
25991;DHT22;13779;-33.886;151.198;2023-11-21T06:30:47;22.10;99.90
25991;DHT22;13779;-33.886;151.198;2023-11-21T06:33:18;22.10;99.90
25991;DHT22;13779;-33.886;151.198;2023-11-21T06:35:49;22.20;99.90
25991;DHT22;13779;-33.886;151.198;2023-11-21T06:38:19;22.30;99.90
25991;DHT22;13779;-33.886;151.198;2023-11-21T06:40:50;22.30;99.90
25991;DHT22;13779;-33.886;151.198;2023-11-21T06:43:20;22.10;99.90
25991;DHT22;13779;-33.886;151.198;2023-11-21T06:45:51;22.10;99.90
25991;DHT22;13779;-33.886;151.198;2023-11-21T06:48:22;22.10;99.90
25991;DHT22;13779;-33.886;151.198;2023-11-21T06:50:52;22.00;99.90
25991;DHT22;13779;-33.886;151.198;2023-11-21T06:53:23;22.00;99.90
25991;DHT22;13779;-33.886;151.198;2023-11-21T06:55:54;22.00;99.90
25991;DHT22;13779;-33.886;151.198;2023-11-21T06:58:24;22.10;99.90
25991;DHT22;13779;-33.886;151.198;2023-11-21T07:00:54;22.10;99.90
25991;DHT22;13779;-33.886;151.198;2023-11-21T07:03:25;22.00;99.90
25991;DHT22;13779;-33.886;151.198;2023-11-21T07:05:55;22.10;99.90
25991;DHT22;13779;-33.886;151.198;2023-11-21T07:08:25;22.00;99.90
25991;DHT22;13779;-33.886;151.198;2023-11-21T07:10:55;22.00;99.90
25991;DHT22;13779;-33.886;151.198;2023-11-21T07:13:25;22.00;99.90
25991;DHT22;13779;-33.886;151.198;2023-11-21T07:15:56;21.90;99.90
25991;DHT22;13779;-33.886;151.198;2023-11-21T07:18:26;22.00;99.90
25991;DHT22;13779;-33.886;151.198;2023-11-21T07:20:56;22.00;99.90
25991;DHT22;13779;-33.886;151.198;2023-11-21T07:23:28;22.00;99.90
25991;DHT22;13779;-33.886;151.198;2023-11-21T07:25:58;22.10;99.90
25991;DHT22;13779;-33.886;151.198;2023-11-21T07:28:28;22.10;99.90
25991;DHT22;13779;-33.886;151.198;2023-11-21T07:30:59;22.10;99.90
25991;DHT22;13779;-33.886;151.198;2023-11-21T07:33:29;22.10;99.90
25991;DHT22;13779;-33.886;151.198;2023-11-21T07:35:59;22.10;99.90
25991;DHT22;13779;-33.886;151.198;2023-11-21T07:38:29;22.10;99.90
25991;DHT22;13779;-33.886;151.198;2023-11-21T07:40:59;22.00;99.90
25991;DHT22;13779;-33.886;151.198;2023-11-21T07:43:30;22.00;99.90
25991;DHT22;13779;-33.886;151.198;2023-11-21T07:46:04;22.00;99.90
25991;DHT22;13779;-33.886;151.198;2023-11-21T07:48:35;21.90;99.90
25991;DHT22;13779;-33.886;151.198;2023-11-21T07:51:06;21.90;99.90
25991;DHT22;13779;-33.886;151.198;2023-11-21T07:53:43;21.90;99.90
25991;DHT22;13779;-33.886;151.198;2023-11-21T07:56:13;21.90;99.90
25991;DHT22;13779;-33.886;151.198;2023-11-21T07:58:43;21.80;99.90
25991;DHT22;13779;-33.886;151.198;2023-11-21T08:01:14;21.90;99.90
25991;DHT22;13779;-33.886;151.198;2023-11-21T08:03:44;21.80;99.90
25991;DHT22;13779;-33.886;151.198;2023-11-21T08:06:14;21.80;99.90
25991;DHT22;13779;-33.886;151.198;2023-11-21T08:08:45;21.80;99.90
25991;DHT22;13779;-33.886;151.198;2023-11-21T08:11:15;21.70;99.90
25991;DHT22;13779;-33.886;151.198;2023-11-21T08:13:47;21.70;99.90
25991;DHT22;13779;-33.886;151.198;2023-11-21T08:16:17;21.70;99.90
25991;DHT22;13779;-33.886;151.198;2023-11-21T08:18:47;21.70;99.90
25991;DHT22;13779;-33.886;151.198;2023-11-21T08:21:17;21.60;99.90
25991;DHT22;13779;-33.886;151.198;2023-11-21T08:23:48;21.70;99.90
25991;DHT22;13779;-33.886;151.198;2023-11-21T08:26:22;21.70;99.90
25991;DHT22;13779;-33.886;151.198;2023-11-21T08:28:53;21.70;99.90
25991;DHT22;13779;-33.886;151.198;2023-11-21T08:31:26;21.70;99.90
25991;DHT22;13779;-33.886;151.198;2023-11-21T08:33:57;21.60;99.90
25991;DHT22;13779;-33.886;151.198;2023-11-21T08:36:28;21.60;99.90
25991;DHT22;13779;-33.886;151.198;2023-11-21T08:38:58;21.60;99.90
25991;DHT22;13779;-33.886;151.198;2023-11-21T08:41:28;21.60;99.90
25991;DHT22;13779;-33.886;151.198;2023-11-21T08:44:00;21.60;99.90
25991;DHT22;13779;-33.886;151.198;2023-11-21T08:46:30;21.50;99.90
25991;DHT22;13779;-33.886;151.198;2023-11-21T08:49:04;21.50;99.90
25991;DHT22;13779;-33.886;151.198;2023-11-21T08:51:35;21.40;99.90
25991;DHT22;13779;-33.886;151.198;2023-11-21T08:54:06;21.40;99.90
25991;DHT22;13779;-33.886;151.198;2023-11-21T08:56:39;21.40;99.90
25991;DHT22;13779;-33.886;151.198;2023-11-21T08:59:10;21.40;99.90
25991;DHT22;13779;-33.886;151.198;2023-11-21T09:01:40;21.40;99.90
25991;DHT22;13779;-33.886;151.198;2023-11-21T09:04:10;21.40;99.90
25991;DHT22;13779;-33.886;151.198;2023-11-21T09:06:42;21.40;99.90
25991;DHT22;13779;-33.886;151.198;2023-11-21T09:09:12;21.40;99.90
25991;DHT22;13779;-33.886;151.198;2023-11-21T09:11:42;21.40;99.90
25991;DHT22;13779;-33.886;151.198;2023-11-21T09:14:14;21.40;99.90
25991;DHT22;13779;-33.886;151.198;2023-11-21T09:16:45;21.40;99.90
25991;DHT22;13779;-33.886;151.198;2023-11-21T09:19:16;21.40;99.90
25991;DHT22;13779;-33.886;151.198;2023-11-21T09:21:46;21.30;99.90
25991;DHT22;13779;-33.886;151.198;2023-11-21T09:24:19;21.30;99.90
25991;DHT22;13779;-33.886;151.198;2023-11-21T09:26:49;21.30;99.90
25991;DHT22;13779;-33.886;151.198;2023-11-21T09:29:20;21.30;99.90
25991;DHT22;13779;-33.886;151.198;2023-11-21T09:31:52;21.30;99.90
25991;DHT22;13779;-33.886;151.198;2023-11-21T09:34:24;21.30;99.90
25991;DHT22;13779;-33.886;151.198;2023-11-21T09:36:55;21.30;99.90
25991;DHT22;13779;-33.886;151.198;2023-11-21T09:39:26;21.30;99.90
25991;DHT22;13779;-33.886;151.198;2023-11-21T09:42:04;21.30;99.90
25991;DHT22;13779;-33.886;151.198;2023-11-21T09:47:30;21.30;99.90
25991;DHT22;13779;-33.886;151.198;2023-11-21T09:50:02;21.30;99.90
25991;DHT22;13779;-33.886;151.198;2023-11-21T09:52:39;21.30;99.90
25991;DHT22;13779;-33.886;151.198;2023-11-21T09:55:18;21.20;99.90
25991;DHT22;13779;-33.886;151.198;2023-11-21T09:57:51;21.30;99.90
25991;DHT22;13779;-33.886;151.198;2023-11-21T10:00:23;21.30;99.90
25991;DHT22;13779;-33.886;151.198;2023-11-21T10:02:53;21.30;99.90
25991;DHT22;13779;-33.886;151.198;2023-11-21T10:05:25;21.30;99.90
25991;DHT22;13779;-33.886;151.198;2023-11-21T10:07:57;21.30;99.90
25991;DHT22;13779;-33.886;151.198;2023-11-21T10:10:31;21.40;99.90
25991;DHT22;13779;-33.886;151.198;2023-11-21T10:13:05;21.40;99.90
25991;DHT22;13779;-33.886;151.198;2023-11-21T10:15:37;21.40;99.90
25991;DHT22;13779;-33.886;151.198;2023-11-21T10:18:09;21.30;99.90
25991;DHT22;13779;-33.886;151.198;2023-11-21T10:20:40;21.30;99.90
25991;DHT22;13779;-33.886;151.198;2023-11-21T10:23:11;21.30;99.90
25991;DHT22;13779;-33.886;151.198;2023-11-21T10:25:42;21.30;99.90
25991;DHT22;13779;-33.886;151.198;2023-11-21T10:28:13;21.30;99.90
25991;DHT22;13779;-33.886;151.198;2023-11-21T10:30:43;21.30;99.90
25991;DHT22;13779;-33.886;151.198;2023-11-21T10:33:13;21.20;99.90
25991;DHT22;13779;-33.886;151.198;2023-11-21T10:35:46;21.20;99.90
25991;DHT22;13779;-33.886;151.198;2023-11-21T10:38:25;21.20;99.90
25991;DHT22;13779;-33.886;151.198;2023-11-21T10:40:57;21.20;99.90
25991;DHT22;13779;-33.886;151.198;2023-11-21T10:43:28;21.30;99.90
25991;DHT22;13779;-33.886;151.198;2023-11-21T10:45:59;21.30;99.90
25991;DHT22;13779;-33.886;151.198;2023-11-21T10:48:30;21.30;99.90
25991;DHT22;13779;-33.886;151.198;2023-11-21T10:51:10;21.30;99.90
25991;DHT22;13779;-33.886;151.198;2023-11-21T10:53:42;21.30;99.90
25991;DHT22;13779;-33.886;151.198;2023-11-21T10:56:15;21.30;99.90
25991;DHT22;13779;-33.886;151.198;2023-11-21T10:58:53;21.30;99.90
25991;DHT22;13779;-33.886;151.198;2023-11-21T11:01:27;21.30;99.90
25991;DHT22;13779;-33.886;151.198;2023-11-21T11:04:01;21.30;99.90
25991;DHT22;13779;-33.886;151.198;2023-11-21T11:06:33;21.20;99.90
25991;DHT22;13779;-33.886;151.198;2023-11-21T11:09:05;21.20;99.90
25991;DHT22;13779;-33.886;151.198;2023-11-21T11:11:39;21.20;99.90
25991;DHT22;13779;-33.886;151.198;2023-11-21T11:14:14;21.20;99.90
25991;DHT22;13779;-33.886;151.198;2023-11-21T11:16:45;21.10;99.90
25991;DHT22;13779;-33.886;151.198;2023-11-21T11:19:16;21.10;99.90
25991;DHT22;13779;-33.886;151.198;2023-11-21T11:27:21;21.10;99.90
25991;DHT22;13779;-33.886;151.198;2023-11-21T11:30:14;21.10;99.90
25991;DHT22;13779;-33.886;151.198;2023-11-21T11:33:29;21.10;99.90
25991;DHT22;13779;-33.886;151.198;2023-11-21T11:35:51;21.00;99.90
25991;DHT22;13779;-33.886;151.198;2023-11-21T11:38:23;21.00;99.90
25991;DHT22;13779;-33.886;151.198;2023-11-21T11:40:55;21.00;99.90
25991;DHT22;13779;-33.886;151.198;2023-11-21T11:43:27;21.10;99.90
25991;DHT22;13779;-33.886;151.198;2023-11-21T11:45:58;21.10;99.90
25991;DHT22;13779;-33.886;151.198;2023-11-21T11:48:29;21.10;99.90
25991;DHT22;13779;-33.886;151.198;2023-11-21T11:51:13;21.10;99.90
25991;DHT22;13779;-33.886;151.198;2023-11-21T11:53:45;21.10;99.90
25991;DHT22;13779;-33.886;151.198;2023-11-21T11:56:30;21.00;99.90
25991;DHT22;13779;-33.886;151.198;2023-11-21T11:59:06;21.00;99.90
25991;DHT22;13779;-33.886;151.198;2023-11-21T12:01:39;21.00;99.90
25991;DHT22;13779;-33.886;151.198;2023-11-21T12:06:52;20.90;99.90
25991;DHT22;13779;-33.886;151.198;2023-11-21T12:09:24;20.90;99.90
25991;DHT22;13779;-33.886;151.198;2023-11-21T12:11:56;20.90;99.90
25991;DHT22;13779;-33.886;151.198;2023-11-21T12:14:27;20.90;99.90
25991;DHT22;13779;-33.886;151.198;2023-11-21T12:17:03;20.90;99.90
25991;DHT22;13779;-33.886;151.198;2023-11-21T12:19:34;20.90;99.90
25991;DHT22;13779;-33.886;151.198;2023-11-21T12:22:05;20.90;99.90
25991;DHT22;13779;-33.886;151.198;2023-11-21T12:24:36;20.90;99.90
25991;DHT22;13779;-33.886;151.198;2023-11-21T12:27:06;20.90;99.90
25991;DHT22;13779;-33.886;151.198;2023-11-21T12:29:37;21.00;99.90
25991;DHT22;13779;-33.886;151.198;2023-11-21T12:32:08;20.90;99.90
25991;DHT22;13779;-33.886;151.198;2023-11-21T12:34:38;21.00;99.90
25991;DHT22;13779;-33.886;151.198;2023-11-21T12:37:09;21.00;99.90
25991;DHT22;13779;-33.886;151.198;2023-11-21T12:39:40;20.90;99.90
25991;DHT22;13779;-33.886;151.198;2023-11-21T12:42:11;20.90;99.90
25991;DHT22;13779;-33.886;151.198;2023-11-21T12:44:41;20.90;99.90
25991;DHT22;13779;-33.886;151.198;2023-11-21T12:47:19;21.00;99.90
25991;DHT22;13779;-33.886;151.198;2023-11-21T12:49:51;21.00;99.90
25991;DHT22;13779;-33.886;151.198;2023-11-21T12:52:23;21.00;99.90
25991;DHT22;13779;-33.886;151.198;2023-11-21T12:54:54;21.00;99.90
25991;DHT22;13779;-33.886;151.198;2023-11-21T12:57:28;20.90;99.90
25991;DHT22;13779;-33.886;151.198;2023-11-21T12:59:59;20.90;99.90
25991;DHT22;13779;-33.886;151.198;2023-11-21T13:02:31;20.90;99.90
25991;DHT22;13779;-33.886;151.198;2023-11-21T13:05:04;20.90;99.90
25991;DHT22;13779;-33.886;151.198;2023-11-21T13:07:45;20.90;99.90
25991;DHT22;13779;-33.886;151.198;2023-11-21T13:10:17;20.90;99.90
25991;DHT22;13779;-33.886;151.198;2023-11-21T13:12:47;20.90;99.90
25991;DHT22;13779;-33.886;151.198;2023-11-21T13:15:17;20.90;99.90
25991;DHT22;13779;-33.886;151.198;2023-11-21T13:17:48;21.00;99.90
25991;DHT22;13779;-33.886;151.198;2023-11-21T13:20:20;21.00;99.90
25991;DHT22;13779;-33.886;151.198;2023-11-21T13:22:54;21.00;99.90
25991;DHT22;13779;-33.886;151.198;2023-11-21T13:25:33;21.00;99.90
25991;DHT22;13779;-33.886;151.198;2023-11-21T13:28:03;21.00;99.90
25991;DHT22;13779;-33.886;151.198;2023-11-21T13:30:33;21.00;99.90
25991;DHT22;13779;-33.886;151.198;2023-11-21T13:33:05;21.00;99.90
25991;DHT22;13779;-33.886;151.198;2023-11-21T13:35:38;21.00;99.90
25991;DHT22;13779;-33.886;151.198;2023-11-21T13:38:20;21.00;99.90
25991;DHT22;13779;-33.886;151.198;2023-11-21T13:40:53;21.10;99.90
25991;DHT22;13779;-33.886;151.198;2023-11-21T13:43:25;21.10;99.90
25991;DHT22;13779;-33.886;151.198;2023-11-21T13:45:58;21.10;99.90
25991;DHT22;13779;-33.886;151.198;2023-11-21T13:48:32;21.00;99.90
25991;DHT22;13779;-33.886;151.198;2023-11-21T13:51:16;21.00;99.90
25991;DHT22;13779;-33.886;151.198;2023-11-21T13:53:48;21.00;99.90
25991;DHT22;13779;-33.886;151.198;2023-11-21T13:56:20;21.00;99.90
25991;DHT22;13779;-33.886;151.198;2023-11-21T13:58:53;21.00;99.90
25991;DHT22;13779;-33.886;151.198;2023-11-21T14:01:25;21.00;99.90
25991;DHT22;13779;-33.886;151.198;2023-11-21T14:04:00;21.00;99.90
25991;DHT22;13779;-33.886;151.198;2023-11-21T14:06:48;21.00;99.90
25991;DHT22;13779;-33.886;151.198;2023-11-21T14:09:22;21.00;99.90
25991;DHT22;13779;-33.886;151.198;2023-11-21T14:11:57;20.90;99.90
25991;DHT22;13779;-33.886;151.198;2023-11-21T14:14:28;20.90;99.90
25991;DHT22;13779;-33.886;151.198;2023-11-21T14:16:58;20.90;99.90
25991;DHT22;13779;-33.886;151.198;2023-11-21T14:19:28;20.90;99.90
25991;DHT22;13779;-33.886;151.198;2023-11-21T14:22:01;21.00;99.90
25991;DHT22;13779;-33.886;151.198;2023-11-21T14:24:32;21.00;99.90
25991;DHT22;13779;-33.886;151.198;2023-11-21T14:27:02;21.00;99.90
25991;DHT22;13779;-33.886;151.198;2023-11-21T14:29:32;21.00;99.90
25991;DHT22;13779;-33.886;151.198;2023-11-21T14:32:08;20.90;99.90
25991;DHT22;13779;-33.886;151.198;2023-11-21T14:34:38;21.00;99.90
25991;DHT22;13779;-33.886;151.198;2023-11-21T14:37:10;21.00;99.90
25991;DHT22;13779;-33.886;151.198;2023-11-21T14:39:43;20.90;99.90
25991;DHT22;13779;-33.886;151.198;2023-11-21T14:42:19;20.90;99.90
25991;DHT22;13779;-33.886;151.198;2023-11-21T14:44:54;20.90;99.90
25991;DHT22;13779;-33.886;151.198;2023-11-21T14:47:29;20.90;99.90
25991;DHT22;13779;-33.886;151.198;2023-11-21T14:50:03;20.90;99.90
25991;DHT22;13779;-33.886;151.198;2023-11-21T14:52:53;20.90;99.90
25991;DHT22;13779;-33.886;151.198;2023-11-21T14:55:28;20.90;99.90
25991;DHT22;13779;-33.886;151.198;2023-11-21T14:58:09;20.90;99.90
25991;DHT22;13779;-33.886;151.198;2023-11-21T15:00:43;20.90;99.90
25991;DHT22;13779;-33.886;151.198;2023-11-21T15:03:17;20.90;99.90
25991;DHT22;13779;-33.886;151.198;2023-11-21T15:06:14;20.90;99.90
25991;DHT22;13779;-33.886;151.198;2023-11-21T15:08:59;20.90;99.90
25991;DHT22;13779;-33.886;151.198;2023-11-21T15:11:55;20.80;99.90
25991;DHT22;13779;-33.886;151.198;2023-11-21T15:14:35;20.80;99.90
25991;DHT22;13779;-33.886;151.198;2023-11-21T15:17:06;20.70;99.90
25991;DHT22;13779;-33.886;151.198;2023-11-21T15:19:37;20.70;99.90
25991;DHT22;13779;-33.886;151.198;2023-11-21T15:22:08;20.80;99.90
25991;DHT22;13779;-33.886;151.198;2023-11-21T15:24:40;20.80;99.90
25991;DHT22;13779;-33.886;151.198;2023-11-21T15:27:13;20.80;99.90
25991;DHT22;13779;-33.886;151.198;2023-11-21T15:29:44;20.80;99.90